Time;durP1;ratioP1;P1;durP2;ratioP2;P2;SDS_P1;SDS_P2;PMS_P1;PMS_P2;Temp;Humidity;BMP_temperature;BMP_pressure;BME280_temperature;BME280_humidity;BME280_pressure;Samples;Min_cycle;Max_cycle;Signal;HPM_P1;HPM_P2
2021/05/12 00:00:16;;;;;;;1.10;0.45;;;;;;;7.26;100.00;92632.22;2095340;28;20021;-85
2021/05/12 00:01:17;;;;;;;0.35;0.35;;;;;;;7.28;100.00;92637.88;2114800;28;20386;-84
2021/05/12 00:02:18;;;;;;;0.40;0.40;;;;;;;7.25;100.00;92636.06;2113619;28;20168;-85
2021/05/12 00:03:19;;;;;;;0.40;0.40;;;;;;;7.32;100.00;92634.00;2093065;28;20021;-85
2021/05/12 00:04:19;;;;;;;0.65;0.45;;;;;;;7.44;100.00;92645.97;2093572;28;20462;-85
2021/05/12 00:05:22;;;;;;;0.40;0.40;;;;;;;7.47;100.00;92639.09;2089883;28;20024;-85
2021/05/12 00:06:23;;;;;;;1.48;0.50;;;;;;;7.34;100.00;92636.28;2095682;28;20038;-85
2021/05/12 00:07:23;;;;;;;1.88;0.50;;;;;;;7.43;100.00;92644.47;2098401;28;20546;-84
2021/05/12 00:08:24;;;;;;;0.77;0.40;;;;;;;7.38;100.00;92639.63;2106523;28;20024;-85
2021/05/12 00:09:25;;;;;;;1.10;0.50;;;;;;;7.34;100.00;92640.84;2114353;28;20031;-84
2021/05/12 00:10:25;;;;;;;0.82;0.50;;;;;;;7.32;100.00;92638.56;2106539;28;20416;-85
2021/05/12 00:11:26;;;;;;;1.13;0.50;;;;;;;7.30;100.00;92638.25;2098143;28;20035;-84
2021/05/12 00:12:27;;;;;;;0.98;0.30;;;;;;;7.36;100.00;92639.25;2095350;28;20106;-85
2021/05/12 00:13:27;;;;;;;0.90;0.50;;;;;;;7.32;100.00;92639.31;2105663;28;20047;-85
2021/05/12 00:14:30;;;;;;;2.75;0.50;;;;;;;7.36;100.00;92641.91;2113753;28;20062;-84
2021/05/12 00:15:31;;;;;;;2.10;0.50;;;;;;;7.32;100.00;92639.31;2106675;28;20089;-85
2021/05/12 00:16:32;;;;;;;1.85;0.50;;;;;;;7.25;100.00;92641.38;2094729;28;20054;-85
2021/05/12 00:17:34;;;;;;;1.30;0.50;;;;;;;7.27;100.00;92641.69;2094561;28;20099;-85
2021/05/12 00:18:39;;;;;;;0.55;0.50;;;;;;;7.24;100.00;92637.97;2091362;28;20025;-85
2021/05/12 00:19:41;;;;;;;1.30;0.52;;;;;;;7.34;100.00;92635.53;2102613;28;20028;-85
2021/05/12 00:20:42;;;;;;;0.63;0.40;;;;;;;7.32;100.00;92638.56;2095255;28;20032;-85
2021/05/12 00:21:49;;;;;;;0.65;0.43;;;;;;;7.22;100.00;92634.94;2089856;28;20382;-84
2021/05/12 00:24:00;;;;;;;0.70;0.50;;;;;;;7.26;100.00;92640.19;2083896;28;20589;-84
2021/05/12 00:25:03;;;;;;;1.30;0.50;;;;;;;7.24;100.00;92637.97;2098838;28;20032;-84
2021/05/12 00:26:04;;;;;;;0.88;0.60;;;;;;;7.27;100.00;92636.38;2085511;28;20018;-85
2021/05/12 00:27:06;;;;;;;2.05;0.60;;;;;;;7.18;100.00;92634.25;2075199;28;20556;-85
2021/05/12 00:28:07;;;;;;;0.63;0.57;;;;;;;7.20;100.00;92633.84;2084984;28;20028;-84
2021/05/12 00:29:10;;;;;;;0.60;0.60;;;;;;;7.27;100.00;92637.13;2083452;28;20429;-84
2021/05/12 00:30:15;;;;;;;0.60;0.60;;;;;;;7.20;100.00;92637.28;2098493;28;20493;-85
2021/05/12 00:31:16;;;;;;;1.35;0.80;;;;;;;7.17;100.00;92637.31;2094054;28;20037;-84
2021/05/12 00:32:17;;;;;;;1.55;0.60;;;;;;;7.20;100.00;92642.59;2093819;28;20051;-85
2021/05/12 00:33:17;;;;;;;3.10;0.70;;;;;;;7.17;100.00;92646.03;2095656;28;20020;-85
2021/05/12 00:34:18;;;;;;;2.30;0.65;;;;;;;7.19;100.00;92641.06;2093065;28;20023;-85
2021/05/12 00:35:19;;;;;;;1.42;0.52;;;;;;;7.25;100.00;92644.78;2086614;28;20035;-85
2021/05/12 00:36:20;;;;;;;1.25;0.60;;;;;;;7.20;100.00;92649.78;2096211;28;20078;-85
2021/05/12 00:37:21;;;;;;;1.80;0.98;;;;;;;7.16;100.00;92641.88;2087028;28;20024;-85
2021/05/12 00:38:21;;;;;;;1.55;0.73;;;;;;;7.16;100.00;92652.53;2089688;28;20033;-85
2021/05/12 00:39:22;;;;;;;0.70;0.70;;;;;;;7.10;100.00;92642.75;2089569;28;20025;-84
2021/05/12 00:40:23;;;;;;;0.80;0.75;;;;;;;7.02;100.00;92642.88;2081364;28;20036;-84
2021/05/12 00:41:24;;;;;;;7.22;1.02;;;;;;;7.02;100.00;92650.06;2088714;28;20024;-85
2021/05/12 00:42:29;;;;;;;1.38;0.70;;;;;;;7.08;100.00;92645.81;2098072;28;20020;-85
2021/05/12 00:43:29;;;;;;;2.15;0.80;;;;;;;7.06;100.00;92653.44;2089444;28;20021;-85
2021/05/12 00:44:30;;;;;;;0.63;0.63;;;;;;;7.06;100.00;92651.53;2090929;28;20051;-85
2021/05/12 00:45:31;;;;;;;1.98;0.75;;;;;;;7.14;100.00;92649.50;2095590;28;20021;-85
2021/05/12 00:46:32;;;;;;;1.65;0.60;;;;;;;7.12;100.00;92651.06;2079378;28;20072;-84
2021/05/12 00:47:32;;;;;;;0.63;0.63;;;;;;;7.18;100.00;92655.50;2092914;28;20025;-85
2021/05/12 00:48:34;;;;;;;0.88;0.70;;;;;;;7.24;100.00;92645.94;2085125;28;20033;-85
2021/05/12 00:49:35;;;;;;;0.82;0.73;;;;;;;7.19;100.00;92651.69;2097042;28;20028;-84
2021/05/12 00:50:36;;;;;;;0.88;0.60;;;;;;;7.13;100.00;92657.88;2101985;28;20067;-85
2021/05/12 00:51:36;;;;;;;1.77;0.70;;;;;;;7.18;100.00;92652.84;2085558;28;20116;-84
2021/05/12 00:52:37;;;;;;;2.67;0.80;;;;;;;7.20;100.00;92652.44;2092848;28;20111;-85
2021/05/12 00:53:38;;;;;;;3.00;0.88;;;;;;;7.21;100.00;92659.28;2089079;28;20033;-84
2021/05/12 00:54:39;;;;;;;1.95;0.80;;;;;;;7.25;100.00;92654.66;2097936;28;20024;-84
2021/05/12 00:55:39;;;;;;;1.98;0.73;;;;;;;7.18;100.00;92649.44;2087539;28;20036;-85
2021/05/12 00:56:42;;;;;;;1.48;0.90;;;;;;;7.13;100.00;92652.56;2081356;28;20029;-85
2021/05/12 00:57:43;;;;;;;1.60;0.80;;;;;;;7.14;100.00;92654.81;2098135;28;20130;-85
2021/05/12 00:58:45;;;;;;;3.25;0.80;;;;;;;7.16;100.00;92652.53;2093441;28;20031;-85
2021/05/12 00:59:46;;;;;;;0.70;0.70;;;;;;;7.14;100.00;92656.72;2086835;28;20059;-86
2021/05/12 01:00:47;;;;;;;1.35;0.73;;;;;;;7.17;100.00;92664.66;2085287;28;20021;-85
2021/05/12 01:01:48;;;;;;;2.05;0.80;;;;;;;7.16;100.00;92663.16;2091235;28;20467;-85
2021/05/12 01:02:48;;;;;;;0.63;0.63;;;;;;;7.21;100.00;92659.28;2091954;28;20025;-85
2021/05/12 01:03:49;;;;;;;0.70;0.70;;;;;;;7.26;100.00;92667.53;2105390;28;20069;-85
2021/05/12 01:04:50;;;;;;;0.90;0.68;;;;;;;7.16;100.00;92657.84;2095893;28;20119;-85
2021/05/12 01:05:50;;;;;;;1.38;0.75;;;;;;;7.15;100.00;92658.22;2085526;28;20030;-85
2021/05/12 01:06:51;;;;;;;0.90;0.75;;;;;;;7.24;100.00;92664.53;2088440;28;20079;-85
2021/05/12 01:07:52;;;;;;;2.72;1.05;;;;;;;7.19;100.00;92664.22;2088100;28;20509;-85
2021/05/12 01:08:53;;;;;;;1.63;0.90;;;;;;;7.20;100.00;92658.53;2097792;28;20021;-85
2021/05/12 01:09:53;;;;;;;3.20;0.90;;;;;;;7.25;100.00;92655.41;2103381;28;20024;-85
2021/05/12 01:10:56;;;;;;;1.80;0.90;;;;;;;7.18;100.00;92660.09;2097902;28;20059;-85
2021/05/12 01:11:57;;;;;;;4.50;1.00;;;;;;;7.13;100.00;92657.88;2114776;28;20036;-85
2021/05/12 01:12:58;;;;;;;1.50;0.82;;;;;;;7.16;100.00;92665.06;2104025;28;20488;-85
2021/05/12 01:14:00;;;;;;;1.48;1.20;;;;;;;7.14;100.00;92664.69;2085058;28;20413;-85
2021/05/12 01:15:00;;;;;;;1.85;1.10;;;;;;;7.14;100.00;92668.09;2086368;28;20107;-83
2021/05/12 01:16:01;;;;;;;3.15;1.20;;;;;;;7.13;100.00;92663.22;2089484;28;20059;-85
2021/05/12 01:17:02;;;;;;;3.72;1.38;;;;;;;7.11;100.00;92662.84;2097822;28;20040;-83
2021/05/12 01:18:16;;;;;;;1.90;1.75;;;;;;;7.07;100.00;92661.00;2105440;28;20095;-85
2021/05/12 01:19:17;;;;;;;2.55;1.20;;;;;;;7.12;100.00;92656.41;2102175;28;20032;-85
2021/05/12 01:20:18;;;;;;;3.50;1.80;;;;;;;7.11;100.00;92665.50;2111118;28;20407;-85
2021/05/12 01:21:18;;;;;;;3.28;1.92;;;;;;;7.13;100.00;92661.28;2106131;28;20031;-85
2021/05/12 01:22:19;;;;;;;3.17;2.10;;;;;;;7.03;100.00;92660.31;2105419;28;20020;-85
2021/05/12 01:23:22;;;;;;;3.42;2.00;;;;;;;7.06;100.00;92661.41;2102996;28;20051;-85
2021/05/12 01:24:23;;;;;;;3.75;1.90;;;;;;;7.03;100.00;92664.88;2089540;28;20371;-84
2021/05/12 01:25:24;;;;;;;2.63;2.20;;;;;;;7.04;100.00;92656.50;2081089;28;20059;-85
2021/05/12 01:26:24;;;;;;;4.30;2.08;;;;;;;7.11;100.00;92658.28;2106510;28;20488;-84
2021/05/12 01:27:25;;;;;;;3.75;2.30;;;;;;;7.06;100.00;92659.50;2117107;27;20039;-85
2021/05/12 01:28:29;;;;;;;6.55;2.92;;;;;;;7.09;100.00;92659.84;2106144;28;20476;-85
2021/05/12 01:29:29;;;;;;;3.03;2.30;;;;;;;7.05;100.00;92659.91;2089973;28;20025;-84
2021/05/12 01:30:30;;;;;;;5.15;2.50;;;;;;;7.03;100.00;92654.25;2097623;28;20477;-84
2021/05/12 01:31:32;;;;;;;4.90;2.60;;;;;;;7.09;100.00;92657.19;2096098;28;20036;-84
2021/05/12 01:32:36;;;;;;;4.18;2.35;;;;;;;7.00;100.00;92658.47;2093935;28;20023;-85
2021/05/12 01:33:37;;;;;;;6.55;2.60;;;;;;;6.93;100.00;92647.94;2095871;28;20055;-85
2021/05/12 01:34:38;;;;;;;4.70;2.53;;;;;;;6.93;100.00;92655.16;2097716;28;20070;-85
2021/05/12 01:35:39;;;;;;;4.90;2.70;;;;;;;6.96;100.00;92654.34;2114340;28;20061;-85
2021/05/12 01:36:40;;;;;;;5.00;2.60;;;;;;;6.95;100.00;92656.25;2112978;28;20019;-85
2021/05/12 01:37:41;;;;;;;5.20;2.50;;;;;;;6.97;100.00;92650.53;2105908;28;20016;-85
2021/05/12 01:38:43;;;;;;;3.38;2.47;;;;;;;7.11;100.00;92655.63;2097691;28;20024;-84
2021/05/12 01:39:44;;;;;;;4.93;2.75;;;;;;;6.92;100.00;92651.00;2093941;28;20074;-84
2021/05/12 01:40:45;;;;;;;3.38;2.42;;;;;;;7.09;100.00;92646.56;2099544;28;20040;-84
2021/05/12 01:41:46;;;;;;;5.55;2.50;;;;;;;6.99;100.00;92653.56;2099304;28;20027;-85
2021/05/12 01:42:47;;;;;;;4.25;2.20;;;;;;;7.03;100.00;92646.28;2092432;28;20020;-84
2021/05/12 01:43:48;;;;;;;4.43;2.63;;;;;;;7.02;100.00;92653.50;2097560;28;20073;-86
2021/05/12 01:44:48;;;;;;;3.65;2.47;;;;;;;7.03;100.00;92656.91;2109470;28;20096;-85
2021/05/12 01:45:49;;;;;;;6.28;2.13;;;;;;;6.98;100.00;92655.47;2105653;28;20024;-84
2021/05/12 01:46:50;;;;;;;3.25;2.22;;;;;;;6.94;100.00;92646.78;2097664;28;20035;-85
2021/05/12 01:47:51;;;;;;;4.00;2.05;;;;;;;6.99;100.00;92645.59;2105905;28;20405;-84
2021/05/12 01:48:52;;;;;;;3.42;2.13;;;;;;;6.92;100.00;92648.34;2098011;28;20465;-84
2021/05/12 01:49:59;;;;;;;2.05;1.85;;;;;;;6.83;100.00;92648.84;2093345;28;20055;-84
2021/05/12 01:51:01;;;;;;;2.20;1.75;;;;;;;6.80;100.00;92647.78;2105956;28;20020;-85
2021/05/12 01:52:02;;;;;;;4.70;2.33;;;;;;;6.80;100.00;92647.00;2097625;28;20111;-85
2021/05/12 01:53:04;;;;;;;1.67;1.52;;;;;;;6.81;100.00;92645.88;2105955;28;20528;-85
2021/05/12 01:54:07;;;;;;;3.20;2.05;;;;;;;6.84;100.00;92647.69;2097649;28;20020;-84
2021/05/12 01:55:10;;;;;;;3.53;1.80;;;;;;;6.88;100.00;92653.72;2089970;28;20100;-84
2021/05/12 01:56:11;;;;;;;2.97;1.70;;;;;;;6.99;100.00;92641.03;2094348;28;20405;-85
2021/05/12 01:57:12;;;;;;;2.00;1.40;;;;;;;6.91;100.00;92647.59;2089365;28;20024;-85
2021/05/12 01:58:14;;;;;;;2.15;1.70;;;;;;;6.92;100.00;92648.34;2083607;28;20021;-85
2021/05/12 01:59:14;;;;;;;3.08;1.27;;;;;;;7.13;100.00;92645.34;2089838;28;20033;-85
2021/05/12 02:00:28;;;;;;;2.97;1.48;;;;;;;7.12;100.00;92645.75;2096287;28;20020;-85
2021/05/12 02:01:28;;;;;;;2.38;1.20;;;;;;;7.02;100.00;92653.50;2089462;28;20072;-85
2021/05/12 02:02:29;;;;;;;3.83;1.33;;;;;;;6.98;100.00;92652.81;2084103;28;20056;-86
2021/05/12 02:03:30;;;;;;;2.17;1.20;;;;;;;7.11;100.00;92641.59;2093855;28;20029;-85
2021/05/12 02:04:31;;;;;;;4.28;1.20;;;;;;;7.07;100.00;92644.31;2097135;28;20155;-85
2021/05/12 02:05:33;;;;;;;2.53;1.00;;;;;;;7.03;100.00;92647.03;2096478;28;20052;-86
2021/05/12 02:06:33;;;;;;;1.48;1.00;;;;;;;7.02;100.00;92642.88;2090659;28;20029;-85
2021/05/12 02:07:34;;;;;;;2.38;0.90;;;;;;;6.97;100.00;92651.28;2110045;28;20055;-85
2021/05/12 02:08:35;;;;;;;2.58;0.95;;;;;;;7.01;100.00;92654.63;2097617;28;20025;-85
2021/05/12 02:09:38;;;;;;;2.65;0.90;;;;;;;6.96;100.00;92646.38;2093499;28;20032;-85
2021/05/12 02:10:42;;;;;;;0.90;0.90;;;;;;;6.98;100.00;92652.03;2097868;28;20370;-84
2021/05/12 02:11:43;;;;;;;3.72;0.80;;;;;;;7.01;100.00;92646.66;2098011;28;20051;-85
2021/05/12 02:12:43;;;;;;;2.08;0.80;;;;;;;7.00;100.00;92650.47;2094767;28;20051;-84
2021/05/12 02:13:45;;;;;;;1.52;1.05;;;;;;;6.98;100.00;92644.06;2093540;28;21062;-86
2021/05/12 02:14:45;;;;;;;5.40;0.80;;;;;;;6.99;100.00;92649.00;2098705;28;20024;-85
2021/05/12 02:15:46;;;;;;;0.93;0.70;;;;;;;6.97;100.00;92645.97;2106507;28;20031;-85
2021/05/12 02:16:47;;;;;;;1.63;0.77;;;;;;;7.01;100.00;92641.34;2108286;28;20023;-86
2021/05/12 02:17:48;;;;;;;1.38;0.80;;;;;;;7.02;100.00;92642.88;2092415;28;20104;-86
2021/05/12 02:18:48;;;;;;;1.20;0.60;;;;;;;7.04;100.00;92647.78;2094268;28;20055;-86
2021/05/12 02:19:49;;;;;;;1.27;0.50;;;;;;;7.15;100.00;92643.03;2101252;28;20077;-85
2021/05/12 02:20:49;;;;;;;0.85;0.60;;;;;;;7.04;100.00;92651.19;2089213;28;20024;-85
2021/05/12 02:21:50;;;;;;;1.23;0.47;;;;;;;7.03;100.00;92652.34;2089290;28;20497;-86
2021/05/12 02:22:51;;;;;;;1.05;0.50;;;;;;;7.00;100.00;92647.81;2100119;28;20025;-86
2021/05/12 02:23:52;;;;;;;0.73;0.60;;;;;;;7.03;100.00;92649.69;2097516;28;20032;-86
2021/05/12 02:24:52;;;;;;;1.15;0.50;;;;;;;7.17;100.00;92648.69;2089070;28;20024;-85
2021/05/12 02:25:53;;;;;;;0.45;0.30;;;;;;;7.07;100.00;92647.72;2108808;28;20023;-85
2021/05/12 02:26:54;;;;;;;0.40;0.30;;;;;;;7.11;100.00;92649.56;2104005;28;20413;-85
2021/05/12 02:27:55;;;;;;;0.93;0.55;;;;;;;7.14;100.00;92654.06;2093199;28;20020;-85
2021/05/12 02:28:57;;;;;;;0.30;0.30;;;;;;;7.09;100.00;92649.22;2093246;28;20032;-84
2021/05/12 02:30:01;;;;;;;0.40;0.38;;;;;;;7.05;100.00;92647.38;2089469;28;20044;-86
2021/05/12 02:31:02;;;;;;;0.30;0.30;;;;;;;7.06;100.00;92643.53;2098113;28;20019;-85
2021/05/12 02:32:03;;;;;;;0.57;0.30;;;;;;;7.21;100.00;92648.66;2093267;28;20049;-85
2021/05/12 02:33:05;;;;;;;1.55;0.20;;;;;;;7.16;100.00;92649.88;2081022;28;20022;-86
2021/05/12 02:34:05;;;;;;;0.95;0.30;;;;;;;7.05;100.00;92650.03;2091844;28;20049;-86
2021/05/12 02:35:08;;;;;;;0.20;0.20;;;;;;;7.06;100.00;92651.53;2089049;28;20025;-86
2021/05/12 02:36:09;;;;;;;0.75;0.40;;;;;;;7.07;100.00;92658.34;2097689;28;20017;-85
2021/05/12 02:37:09;;;;;;;0.20;0.20;;;;;;;7.02;100.00;92655.38;2092982;28;20021;-84
2021/05/12 02:38:10;;;;;;;0.30;0.30;;;;;;;6.99;100.00;92653.56;2087265;28;20033;-86
2021/05/12 02:39:11;;;;;;;0.30;0.30;;;;;;;6.95;100.00;92652.84;2093152;28;20435;-86
2021/05/12 02:40:15;;;;;;;0.30;0.20;;;;;;;6.95;100.00;92653.59;2110702;28;20023;-85
2021/05/12 02:41:15;;;;;;;0.30;0.20;;;;;;;6.88;100.00;92653.72;2114181;28;20325;-86
2021/05/12 02:42:16;;;;;;;0.73;0.30;;;;;;;6.99;100.00;92650.91;2116743;28;20080;-86
2021/05/12 02:43:17;;;;;;;0.17;0.13;;;;;;;7.00;100.00;92653.16;2106503;28;20024;-85
2021/05/12 02:44:17;;;;;;;0.10;0.10;;;;;;;7.00;100.00;92655.81;2097410;28;20024;-85
2021/05/12 02:45:19;;;;;;;0.20;0.20;;;;;;;7.03;100.00;92652.34;2097233;28;20025;-86
2021/05/12 02:46:20;;;;;;;0.10;0.10;;;;;;;7.08;100.00;92651.13;2102325;28;20020;-85
2021/05/12 02:47:20;;;;;;;0.10;0.10;;;;;;;7.06;100.00;92650.78;2097424;28;20044;-85
2021/05/12 02:48:21;;;;;;;0.10;0.10;;;;;;;7.13;100.00;92647.25;2105257;28;20024;-85
2021/05/12 02:49:21;;;;;;;0.10;0.10;;;;;;;7.03;100.00;92651.59;2105707;28;20024;-86
2021/05/12 02:50:24;;;;;;;0.70;0.13;;;;;;;6.97;100.00;92655.84;2105667;28;20020;-85
2021/05/12 02:51:25;;;;;;;0.20;0.20;;;;;;;6.92;100.00;92653.66;2097770;28;20024;-86
2021/05/12 02:52:26;;;;;;;0.20;0.20;;;;;;;7.05;100.00;92646.63;2105612;28;20024;-85
2021/05/12 02:53:26;;;;;;;0.10;0.10;;;;;;;6.88;100.00;92653.72;2101966;28;20029;-85
2021/05/12 02:54:27;;;;;;;0.10;0.10;;;;;;;6.85;100.00;92645.78;2098163;28;20040;-86
2021/05/12 02:55:28;;;;;;;0.52;0.30;;;;;;;6.90;100.00;92646.09;2106156;28;20125;-85
2021/05/12 02:56:29;;;;;;;0.35;0.20;;;;;;;6.93;100.00;92647.94;2104091;28;20039;-84
2021/05/12 02:57:30;;;;;;;0.20;0.20;;;;;;;6.95;100.00;92647.53;2082878;28;20545;-85
2021/05/12 02:58:31;;;;;;;0.17;0.17;;;;;;;6.88;100.00;92650.31;2083687;28;20071;-85
2021/05/12 02:59:31;;;;;;;0.10;0.10;;;;;;;6.84;100.00;92652.25;2095454;28;20029;-85
2021/05/12 03:00:33;;;;;;;0.10;0.10;;;;;;;6.87;100.00;92641.59;2100009;28;20040;-86
2021/05/12 03:01:34;;;;;;;0.20;0.20;;;;;;;6.84;100.00;92642.38;2099525;28;20556;-87
2021/05/12 03:02:34;;;;;;;0.40;0.20;;;;;;;6.95;100.00;92648.28;2091082;28;20048;-86
2021/05/12 03:03:36;;;;;;;0.10;0.10;;;;;;;6.89;100.00;92647.25;2094230;28;20493;-85
2021/05/12 03:04:37;;;;;;;0.20;0.20;;;;;;;6.82;100.00;92650.00;2105574;28;20124;-85
2021/05/12 03:05:39;;;;;;;1.02;0.20;;;;;;;6.71;100.00;92647.50;2111926;28;20034;-85
2021/05/12 03:06:40;;;;;;;0.20;0.20;;;;;;;6.78;100.00;92647.41;2105350;28;20024;-86
2021/05/12 03:07:41;;;;;;;0.30;0.30;;;;;;;6.73;100.00;92644.47;2096984;28;20024;-85
2021/05/12 03:08:42;;;;;;;0.20;0.20;;;;;;;6.72;100.00;92640.31;2092434;28;20028;-86
2021/05/12 03:09:42;;;;;;;0.10;0.10;;;;;;;6.79;100.00;92643.59;2094528;28;20025;-85
2021/05/12 03:10:43;;;;;;;0.20;0.20;;;;;;;6.71;100.00;92650.16;2104631;28;20107;-86
2021/05/12 03:11:44;;;;;;;0.10;0.10;;;;;;;6.64;100.00;92637.00;2102275;28;20055;-85
2021/05/12 03:12:45;;;;;;;0.88;0.10;;;;;;;6.71;100.00;92644.84;2098971;28;20487;-85
2021/05/12 03:13:46;;;;;;;0.60;0.10;;;;;;;6.69;100.00;92641.09;2103254;28;20032;-85
2021/05/12 03:14:46;;;;;;;0.10;0.10;;;;;;;6.74;100.00;92640.66;2107545;28;20024;-85
2021/05/12 03:15:47;;;;;;;0.10;0.10;;;;;;;6.74;100.00;92649.38;2090902;28;20104;-86
2021/05/12 03:16:48;;;;;;;0.28;0.28;;;;;;;6.68;100.00;92640.34;2098976;28;20024;-86
2021/05/12 03:17:50;;;;;;;0.40;0.10;;;;;;;6.71;100.00;92642.19;2098695;28;20123;-86
2021/05/12 03:18:51;;;;;;;0.55;0.10;;;;;;;6.72;100.00;92645.63;2096688;28;20396;-85
2021/05/12 03:19:52;;;;;;;0.20;0.20;;;;;;;6.68;100.00;92645.66;2102775;28;20040;-86
2021/05/12 03:20:53;;;;;;;0.20;0.20;;;;;;;6.67;100.00;92648.72;2097836;28;20202;-86
2021/05/12 03:21:56;;;;;;;0.10;0.10;;;;;;;6.67;100.00;92640.75;2101273;28;20089;-86
2021/05/12 03:22:57;;;;;;;0.80;0.10;;;;;;;6.79;100.00;92646.25;2094217;28;20029;-86
2021/05/12 03:23:58;;;;;;;0.32;0.20;;;;;;;6.74;100.00;92643.31;2093242;28;20414;-85
2021/05/12 03:24:59;;;;;;;0.20;0.20;;;;;;;6.74;100.00;92649.38;2095199;28;20025;-85
2021/05/12 03:26:00;;;;;;;0.15;0.15;;;;;;;6.67;100.00;92654.03;2115444;28;20023;-85
2021/05/12 03:27:00;;;;;;;0.90;0.20;;;;;;;6.61;100.00;92651.06;2113718;28;20020;-85
2021/05/12 03:28:02;;;;;;;0.20;0.20;;;;;;;6.57;100.00;92651.13;2107784;28;20016;-84
2021/05/12 03:29:05;;;;;;;0.20;0.20;;;;;;;6.65;100.00;92654.44;2092306;28;20455;-85
2021/05/12 03:30:10;;;;;;;0.55;0.45;;;;;;;6.65;100.00;92651.03;2097019;28;20032;-85
2021/05/12 03:31:11;;;;;;;2.45;0.40;;;;;;;6.63;100.00;92654.09;2092095;28;20036;-85
2021/05/12 03:32:12;;;;;;;0.10;0.10;;;;;;;6.61;100.00;92650.31;2089188;28;20054;-85
2021/05/12 03:33:13;;;;;;;0.10;0.10;;;;;;;6.74;100.00;92656.59;2100757;28;20432;-84
2021/05/12 03:34:14;;;;;;;0.90;0.20;;;;;;;6.67;100.00;92654.03;2114988;28;20047;-86
2021/05/12 03:35:15;;;;;;;0.45;0.10;;;;;;;6.66;100.00;92657.84;2094736;28;20032;-85
2021/05/12 03:36:16;;;;;;;1.52;0.10;;;;;;;6.74;100.00;92657.34;2092078;28;20024;-85
2021/05/12 03:37:17;;;;;;;0.20;0.13;;;;;;;6.60;100.00;92656.78;2097115;28;20021;-86
2021/05/12 03:38:18;;;;;;;0.15;0.15;;;;;;;6.67;100.00;92659.34;2098742;28;20028;-85
2021/05/12 03:39:19;;;;;;;0.45;0.10;;;;;;;6.73;100.00;92652.44;2091107;28;20041;-85
2021/05/12 03:40:19;;;;;;;0.15;0.15;;;;;;;6.77;100.00;92659.19;2090948;28;20084;-86
2021/05/12 03:41:20;;;;;;;0.10;0.10;;;;;;;6.78;100.00;92657.28;2097789;28;20021;-85
2021/05/12 03:42:21;;;;;;;0.10;0.10;;;;;;;6.67;100.00;92659.34;2100383;28;20381;-85
2021/05/12 03:43:22;;;;;;;1.13;0.17;;;;;;;6.55;100.00;92658.75;2098638;28;20414;-85
2021/05/12 03:44:22;;;;;;;0.10;0.10;;;;;;;6.68;100.00;92666.16;2094098;28;20028;-86
2021/05/12 03:45:24;;;;;;;0.10;0.10;;;;;;;6.61;100.00;92655.63;2098851;28;20051;-85
2021/05/12 03:46:24;;;;;;;0.10;0.10;;;;;;;6.64;100.00;92655.59;2092440;28;20031;-84
2021/05/12 03:47:25;;;;;;;1.13;0.10;;;;;;;6.60;100.00;92654.16;2098682;28;20609;-86
2021/05/12 03:48:26;;;;;;;0.17;0.17;;;;;;;6.53;100.00;92653.06;2098582;28;20431;-85
2021/05/12 03:49:27;;;;;;;0.68;0.17;;;;;;;6.51;100.00;92662.59;2090295;28;20021;-86
2021/05/12 03:50:28;;;;;;;0.20;0.20;;;;;;;6.54;100.00;92657.25;2098692;28;20102;-86
2021/05/12 03:51:29;;;;;;;0.13;0.13;;;;;;;6.53;100.00;92655.72;2098605;28;20024;-85
2021/05/12 03:52:30;;;;;;;0.10;0.10;;;;;;;6.60;100.00;92648.81;2094619;28;20017;-86
2021/05/12 03:53:31;;;;;;;0.10;0.10;;;;;;;6.53;100.00;92655.72;2097665;28;20031;-85
2021/05/12 03:54:32;;;;;;;0.20;0.20;;;;;;;6.59;100.00;92655.31;2107082;28;20053;-85
2021/05/12 03:55:32;;;;;;;0.17;0.17;;;;;;;6.55;100.00;92658.75;2099767;28;20489;-86
2021/05/12 03:56:33;;;;;;;0.10;0.10;;;;;;;6.52;100.00;92658.78;2094952;28;20379;-85
2021/05/12 03:57:35;;;;;;;0.20;0.20;;;;;;;6.46;100.00;92660.41;2083321;28;20029;-85
2021/05/12 03:58:35;;;;;;;0.20;0.20;;;;;;;6.56;100.00;92662.91;2098394;28;20413;-85
2021/05/12 03:59:36;;;;;;;0.20;0.20;;;;;;;6.45;100.00;92662.31;2108482;28;20032;-85
2021/05/12 04:00:37;;;;;;;0.47;0.20;;;;;;;6.51;100.00;92666.00;2110119;28;20428;-85
2021/05/12 04:01:37;;;;;;;0.85;0.20;;;;;;;6.44;100.00;92668.75;2106675;28;20065;-86
2021/05/12 04:02:40;;;;;;;0.20;0.20;;;;;;;6.40;100.00;92668.03;2102542;28;20031;-85
2021/05/12 04:03:40;;;;;;;1.08;0.20;;;;;;;6.44;100.00;92673.31;2099858;28;20074;-86
2021/05/12 04:04:41;;;;;;;0.20;0.20;;;;;;;6.39;100.00;92676.41;2098287;28;20110;-86
2021/05/12 04:05:42;;;;;;;0.30;0.30;;;;;;;6.44;100.00;92666.09;2100626;28;20055;-84
2021/05/12 04:06:45;;;;;;;0.28;0.20;;;;;;;6.41;100.00;92674.88;2106916;28;20023;-85
2021/05/12 04:07:46;;;;;;;0.73;0.20;;;;;;;6.32;100.00;92677.25;2102210;28;20484;-85
2021/05/12 04:08:46;;;;;;;0.22;0.20;;;;;;;6.35;100.00;92678.38;2098397;28;20021;-85
2021/05/12 04:09:47;;;;;;;0.35;0.30;;;;;;;6.29;100.00;92678.81;2108917;28;20077;-85
2021/05/12 04:10:48;;;;;;;0.20;0.20;;;;;;;6.33;100.00;92676.13;2112524;28;20481;-85
2021/05/12 04:11:49;;;;;;;5.80;0.35;;;;;;;6.37;100.00;92681.38;2098495;28;20024;-85
2021/05/12 04:12:49;;;;;;;0.25;0.25;;;;;;;6.33;100.00;92676.13;2098415;28;20028;-84
2021/05/12 04:13:50;;;;;;;0.68;0.40;;;;;;;6.23;100.00;92672.47;2104789;28;20193;-85
2021/05/12 04:14:51;;;;;;;0.20;0.20;;;;;;;6.22;100.00;92680.78;2094933;28;20028;-86
2021/05/12 04:15:52;;;;;;;0.35;0.28;;;;;;;6.20;100.00;92681.19;2095506;28;20020;-85
2021/05/12 04:16:52;;;;;;;0.20;0.20;;;;;;;6.14;100.00;92672.16;2098147;28;20031;-85
2021/05/12 04:17:53;;;;;;;1.55;0.50;;;;;;;6.15;100.00;92667.63;2098344;28;20039;-85
2021/05/12 04:18:55;;;;;;;0.35;0.30;;;;;;;6.18;100.00;92672.88;2104312;28;20058;-86
2021/05/12 04:19:55;;;;;;;0.55;0.30;;;;;;;6.15;100.00;92688.84;2106374;28;20020;-85
2021/05/12 04:20:56;;;;;;;1.20;0.30;;;;;;;6.18;100.00;92680.09;2094923;28;20029;-85
2021/05/12 04:21:57;;;;;;;0.30;0.30;;;;;;;6.19;100.00;92681.59;2098194;28;20114;-85
2021/05/12 04:22:57;;;;;;;0.40;0.40;;;;;;;6.19;99.87;92673.63;2102094;28;20059;-85
2021/05/12 04:23:58;;;;;;;0.52;0.30;;;;;;;6.07;100.00;92676.81;2095687;28;20017;-84
2021/05/12 04:24:59;;;;;;;0.30;0.30;;;;;;;6.08;100.00;92687.03;2098292;28;20028;-85
2021/05/12 04:26:00;;;;;;;0.82;0.45;;;;;;;6.10;100.00;92676.00;2089826;28;20017;-84
2021/05/12 04:27:00;;;;;;;0.40;0.40;;;;;;;6.09;100.00;92680.56;2102804;28;20020;-85
2021/05/12 04:28:01;;;;;;;0.90;0.63;;;;;;;6.08;100.00;92686.28;2120352;27;20080;-84
2021/05/12 04:29:03;;;;;;;1.45;0.70;;;;;;;5.95;98.89;92678.84;2112677;28;20053;-86
2021/05/12 04:30:09;;;;;;;2.58;0.85;;;;;;;5.91;100.00;92685.31;2103835;28;20024;-85
2021/05/12 04:31:09;;;;;;;2.55;1.10;;;;;;;5.94;100.00;92676.59;2098898;28;20047;-84
2021/05/12 04:32:10;;;;;;;2.80;0.88;;;;;;;5.85;100.00;92679.69;2098062;28;20027;-86
2021/05/12 04:33:11;;;;;;;2.88;0.90;;;;;;;5.85;100.00;92687.66;2091624;28;20024;-85
2021/05/12 04:34:11;;;;;;;3.00;0.90;;;;;;;5.86;100.00;92689.16;2102373;28;20031;-85
2021/05/12 04:35:14;;;;;;;2.78;0.90;;;;;;;5.70;100.00;92686.28;2091509;28;20025;-85
2021/05/12 04:36:15;;;;;;;3.45;1.00;;;;;;;5.58;100.00;92690.19;2097342;28;20050;-85
2021/05/12 04:37:15;;;;;;;1.60;1.00;;;;;;;5.59;100.00;92689.06;2102596;28;20028;-85
2021/05/12 04:38:16;;;;;;;1.48;1.00;;;;;;;5.67;100.00;92692.38;2112236;28;20019;-85
2021/05/12 04:39:17;;;;;;;2.97;1.08;;;;;;;5.68;100.00;92691.25;2103029;28;20021;-85
2021/05/12 04:40:19;;;;;;;1.73;1.15;;;;;;;5.68;100.00;92691.97;2081419;28;20394;-85
2021/05/12 04:41:20;;;;;;;2.17;0.95;;;;;;;5.68;100.00;92693.88;2098629;28;20024;-85
2021/05/12 04:42:21;;;;;;;1.38;0.80;;;;;;;5.63;100.00;92689.78;2114248;28;20546;-85
2021/05/12 04:43:21;;;;;;;3.83;0.80;;;;;;;5.65;100.00;92689.38;2097945;28;20394;-85
2021/05/12 04:44:22;;;;;;;3.55;0.82;;;;;;;5.59;100.00;92694.34;2086869;28;20052;-85
2021/05/12 04:45:23;;;;;;;1.77;0.80;;;;;;;5.76;100.00;92693.41;2098135;28;20090;-85
2021/05/12 04:46:25;;;;;;;1.13;1.00;;;;;;;5.72;100.00;92694.59;2090449;28;20033;-85
2021/05/12 04:47:26;;;;;;;1.20;0.85;;;;;;;5.70;100.00;92694.22;2103477;28;20126;-85
2021/05/12 04:48:27;;;;;;;2.85;0.90;;;;;;;5.70;100.00;92692.34;2102762;28;20119;-85
2021/05/12 04:49:27;;;;;;;1.10;0.80;;;;;;;5.70;100.00;92692.34;2089569;28;20032;-85